sensor_id;sensor_type;location;lat;lon;timestamp;P1;durP1;ratioP1;P2;durP2;ratioP2
77158;SDS011;66129;45.890;13.714;2023-11-19T00:01:31;8.15;;;4.72;;
77158;SDS011;66129;45.890;13.714;2023-11-19T00:03:57;7.35;;;3.65;;
77158;SDS011;66129;45.890;13.714;2023-11-19T00:06:23;4.28;;;3.20;;
77158;SDS011;66129;45.890;13.714;2023-11-19T00:08:49;8.55;;;4.07;;
77158;SDS011;66129;45.890;13.714;2023-11-19T00:11:15;8.40;;;4.70;;
77158;SDS011;66129;45.890;13.714;2023-11-19T00:13:41;8.82;;;4.80;;
77158;SDS011;66129;45.890;13.714;2023-11-19T00:16:06;9.27;;;4.40;;
77158;SDS011;66129;45.890;13.714;2023-11-19T00:18:33;12.52;;;4.78;;
77158;SDS011;66129;45.890;13.714;2023-11-19T00:20:58;16.73;;;6.25;;
77158;SDS011;66129;45.890;13.714;2023-11-19T00:23:24;11.80;;;6.22;;
77158;SDS011;66129;45.890;13.714;2023-11-19T00:25:49;11.15;;;6.03;;
77158;SDS011;66129;45.890;13.714;2023-11-19T00:28:14;11.02;;;5.80;;
77158;SDS011;66129;45.890;13.714;2023-11-19T00:30:40;8.48;;;4.95;;
77158;SDS011;66129;45.890;13.714;2023-11-19T00:33:06;8.57;;;4.13;;
77158;SDS011;66129;45.890;13.714;2023-11-19T00:35:31;7.25;;;3.85;;
77158;SDS011;66129;45.890;13.714;2023-11-19T00:37:58;5.60;;;3.80;;
77158;SDS011;66129;45.890;13.714;2023-11-19T00:40:23;6.20;;;3.72;;
77158;SDS011;66129;45.890;13.714;2023-11-19T00:42:49;8.80;;;3.88;;
77158;SDS011;66129;45.890;13.714;2023-11-19T00:45:14;6.68;;;3.80;;
77158;SDS011;66129;45.890;13.714;2023-11-19T00:47:40;5.97;;;3.72;;
77158;SDS011;66129;45.890;13.714;2023-11-19T00:50:06;5.65;;;3.15;;
77158;SDS011;66129;45.890;13.714;2023-11-19T00:52:34;7.50;;;4.90;;
77158;SDS011;66129;45.890;13.714;2023-11-19T00:55:01;6.72;;;3.97;;
77158;SDS011;66129;45.890;13.714;2023-11-19T00:57:26;8.38;;;3.60;;
77158;SDS011;66129;45.890;13.714;2023-11-19T00:59:52;7.05;;;3.17;;
77158;SDS011;66129;45.890;13.714;2023-11-19T01:02:17;6.05;;;3.33;;
77158;SDS011;66129;45.890;13.714;2023-11-19T01:04:43;6.90;;;3.40;;
77158;SDS011;66129;45.890;13.714;2023-11-19T01:07:09;6.85;;;3.17;;
77158;SDS011;66129;45.890;13.714;2023-11-19T01:09:38;9.75;;;3.85;;
77158;SDS011;66129;45.890;13.714;2023-11-19T01:12:04;4.88;;;2.78;;
77158;SDS011;66129;45.890;13.714;2023-11-19T01:14:30;6.85;;;3.70;;
77158;SDS011;66129;45.890;13.714;2023-11-19T01:16:56;9.27;;;3.80;;
77158;SDS011;66129;45.890;13.714;2023-11-19T01:19:21;7.03;;;3.53;;
77158;SDS011;66129;45.890;13.714;2023-11-19T01:21:48;9.27;;;3.92;;
77158;SDS011;66129;45.890;13.714;2023-11-19T01:24:16;10.45;;;4.53;;
77158;SDS011;66129;45.890;13.714;2023-11-19T01:26:43;8.35;;;3.85;;
77158;SDS011;66129;45.890;13.714;2023-11-19T01:29:19;3.95;;;2.60;;
77158;SDS011;66129;45.890;13.714;2023-11-19T01:31:45;6.00;;;3.25;;
77158;SDS011;66129;45.890;13.714;2023-11-19T01:34:16;5.40;;;2.83;;
77158;SDS011;66129;45.890;13.714;2023-11-19T01:36:41;4.25;;;2.75;;
77158;SDS011;66129;45.890;13.714;2023-11-19T01:39:07;4.95;;;2.72;;
77158;SDS011;66129;45.890;13.714;2023-11-19T01:41:35;3.47;;;2.45;;
77158;SDS011;66129;45.890;13.714;2023-11-19T01:44:01;4.22;;;2.67;;
77158;SDS011;66129;45.890;13.714;2023-11-19T01:46:27;4.75;;;2.55;;
77158;SDS011;66129;45.890;13.714;2023-11-19T01:48:54;4.35;;;2.80;;
77158;SDS011;66129;45.890;13.714;2023-11-19T01:51:20;5.05;;;2.60;;
77158;SDS011;66129;45.890;13.714;2023-11-19T01:53:46;3.50;;;2.13;;
77158;SDS011;66129;45.890;13.714;2023-11-19T01:56:14;4.03;;;2.53;;
77158;SDS011;66129;45.890;13.714;2023-11-19T01:58:41;5.25;;;2.40;;
77158;SDS011;66129;45.890;13.714;2023-11-19T02:01:09;4.07;;;2.45;;
77158;SDS011;66129;45.890;13.714;2023-11-19T02:03:36;4.30;;;2.70;;
77158;SDS011;66129;45.890;13.714;2023-11-19T02:06:02;5.00;;;2.80;;
77158;SDS011;66129;45.890;13.714;2023-11-19T02:08:29;5.30;;;2.88;;
77158;SDS011;66129;45.890;13.714;2023-11-19T02:10:55;4.13;;;2.45;;
77158;SDS011;66129;45.890;13.714;2023-11-19T02:13:22;4.82;;;2.50;;
77158;SDS011;66129;45.890;13.714;2023-11-19T02:15:50;4.28;;;2.50;;
77158;SDS011;66129;45.890;13.714;2023-11-19T02:18:25;3.22;;;2.30;;
77158;SDS011;66129;45.890;13.714;2023-11-19T02:20:58;5.22;;;2.85;;
77158;SDS011;66129;45.890;13.714;2023-11-19T02:23:27;3.50;;;2.08;;
77158;SDS011;66129;45.890;13.714;2023-11-19T02:28:27;7.03;;;3.15;;
77158;SDS011;66129;45.890;13.714;2023-11-19T02:30:53;4.32;;;2.80;;
77158;SDS011;66129;45.890;13.714;2023-11-19T02:33:18;4.05;;;2.45;;
77158;SDS011;66129;45.890;13.714;2023-11-19T02:35:44;6.03;;;3.10;;
77158;SDS011;66129;45.890;13.714;2023-11-19T02:38:09;4.95;;;2.75;;
77158;SDS011;66129;45.890;13.714;2023-11-19T02:40:36;6.60;;;3.03;;
77158;SDS011;66129;45.890;13.714;2023-11-19T02:43:01;3.40;;;2.55;;
77158;SDS011;66129;45.890;13.714;2023-11-19T02:45:27;3.92;;;2.55;;
77158;SDS011;66129;45.890;13.714;2023-11-19T02:47:53;7.85;;;2.95;;
77158;SDS011;66129;45.890;13.714;2023-11-19T02:50:20;5.47;;;2.72;;
77158;SDS011;66129;45.890;13.714;2023-11-19T02:52:55;4.20;;;2.47;;
77158;SDS011;66129;45.890;13.714;2023-11-19T02:55:21;4.35;;;2.45;;
77158;SDS011;66129;45.890;13.714;2023-11-19T02:57:49;3.25;;;2.40;;
77158;SDS011;66129;45.890;13.714;2023-11-19T03:00:24;4.85;;;2.50;;
77158;SDS011;66129;45.890;13.714;2023-11-19T03:02:53;5.07;;;2.67;;
77158;SDS011;66129;45.890;13.714;2023-11-19T03:05:25;4.10;;;2.40;;
77158;SDS011;66129;45.890;13.714;2023-11-19T03:07:52;4.80;;;3.15;;
77158;SDS011;66129;45.890;13.714;2023-11-19T03:10:17;4.80;;;2.78;;
77158;SDS011;66129;45.890;13.714;2023-11-19T03:12:44;4.70;;;3.17;;
77158;SDS011;66129;45.890;13.714;2023-11-19T03:15:10;6.10;;;3.15;;
77158;SDS011;66129;45.890;13.714;2023-11-19T03:17:39;5.18;;;2.42;;
77158;SDS011;66129;45.890;13.714;2023-11-19T03:20:06;3.40;;;2.55;;
77158;SDS011;66129;45.890;13.714;2023-11-19T03:22:34;10.85;;;2.45;;
77158;SDS011;66129;45.890;13.714;2023-11-19T03:25:02;3.63;;;2.10;;
77158;SDS011;66129;45.890;13.714;2023-11-19T03:27:27;3.78;;;2.28;;
77158;SDS011;66129;45.890;13.714;2023-11-19T03:29:53;4.93;;;2.45;;
77158;SDS011;66129;45.890;13.714;2023-11-19T03:32:18;4.93;;;2.05;;
77158;SDS011;66129;45.890;13.714;2023-11-19T03:34:44;4.55;;;2.80;;
77158;SDS011;66129;45.890;13.714;2023-11-19T03:37:10;4.95;;;2.50;;
77158;SDS011;66129;45.890;13.714;2023-11-19T03:39:35;3.65;;;2.28;;
77158;SDS011;66129;45.890;13.714;2023-11-19T03:42:01;3.75;;;2.10;;
77158;SDS011;66129;45.890;13.714;2023-11-19T03:44:28;4.47;;;2.58;;
77158;SDS011;66129;45.890;13.714;2023-11-19T03:46:53;7.13;;;2.53;;
77158;SDS011;66129;45.890;13.714;2023-11-19T03:49:19;6.95;;;2.10;;
77158;SDS011;66129;45.890;13.714;2023-11-19T03:51:44;9.55;;;3.05;;
77158;SDS011;66129;45.890;13.714;2023-11-19T03:54:10;6.88;;;3.20;;
77158;SDS011;66129;45.890;13.714;2023-11-19T03:56:36;5.80;;;2.15;;
77158;SDS011;66129;45.890;13.714;2023-11-19T03:59:02;5.40;;;2.63;;
77158;SDS011;66129;45.890;13.714;2023-11-19T04:01:28;7.10;;;2.80;;
77158;SDS011;66129;45.890;13.714;2023-11-19T04:03:53;3.35;;;2.28;;
77158;SDS011;66129;45.890;13.714;2023-11-19T04:06:20;3.97;;;2.50;;
77158;SDS011;66129;45.890;13.714;2023-11-19T04:08:46;4.10;;;2.35;;
77158;SDS011;66129;45.890;13.714;2023-11-19T04:11:11;4.03;;;2.30;;
77158;SDS011;66129;45.890;13.714;2023-11-19T04:13:37;4.57;;;2.30;;
77158;SDS011;66129;45.890;13.714;2023-11-19T04:16:02;3.85;;;2.33;;
77158;SDS011;66129;45.890;13.714;2023-11-19T04:18:29;3.78;;;2.58;;
77158;SDS011;66129;45.890;13.714;2023-11-19T04:20:54;5.13;;;2.58;;
77158;SDS011;66129;45.890;13.714;2023-11-19T04:23:20;5.55;;;3.17;;
77158;SDS011;66129;45.890;13.714;2023-11-19T04:25:45;4.30;;;2.53;;
77158;SDS011;66129;45.890;13.714;2023-11-19T04:28:11;4.75;;;2.22;;
77158;SDS011;66129;45.890;13.714;2023-11-19T04:30:36;4.63;;;2.40;;
77158;SDS011;66129;45.890;13.714;2023-11-19T04:33:02;4.93;;;2.78;;
77158;SDS011;66129;45.890;13.714;2023-11-19T04:35:28;4.80;;;2.70;;
77158;SDS011;66129;45.890;13.714;2023-11-19T04:37:53;3.05;;;1.98;;
77158;SDS011;66129;45.890;13.714;2023-11-19T04:40:23;5.28;;;3.05;;
77158;SDS011;66129;45.890;13.714;2023-11-19T04:42:48;3.55;;;2.13;;
77158;SDS011;66129;45.890;13.714;2023-11-19T04:45:14;4.78;;;2.65;;
77158;SDS011;66129;45.890;13.714;2023-11-19T04:47:41;4.38;;;2.80;;
77158;SDS011;66129;45.890;13.714;2023-11-19T04:50:07;6.68;;;3.22;;
77158;SDS011;66129;45.890;13.714;2023-11-19T04:52:38;4.38;;;2.42;;
77158;SDS011;66129;45.890;13.714;2023-11-19T04:55:05;4.22;;;2.72;;
77158;SDS011;66129;45.890;13.714;2023-11-19T04:57:31;5.07;;;2.60;;
77158;SDS011;66129;45.890;13.714;2023-11-19T04:59:58;4.82;;;3.03;;
77158;SDS011;66129;45.890;13.714;2023-11-19T05:02:23;5.15;;;2.60;;
77158;SDS011;66129;45.890;13.714;2023-11-19T05:04:49;6.00;;;3.30;;
77158;SDS011;66129;45.890;13.714;2023-11-19T05:07:14;6.07;;;2.95;;
77158;SDS011;66129;45.890;13.714;2023-11-19T05:09:40;5.45;;;2.92;;
77158;SDS011;66129;45.890;13.714;2023-11-19T05:12:05;4.22;;;2.78;;
77158;SDS011;66129;45.890;13.714;2023-11-19T05:14:34;4.53;;;3.08;;
77158;SDS011;66129;45.890;13.714;2023-11-19T05:17:00;8.00;;;3.10;;
77158;SDS011;66129;45.890;13.714;2023-11-19T05:19:25;6.90;;;3.50;;
77158;SDS011;66129;45.890;13.714;2023-11-19T05:21:51;3.20;;;2.42;;
77158;SDS011;66129;45.890;13.714;2023-11-19T05:24:17;4.10;;;2.72;;
77158;SDS011;66129;45.890;13.714;2023-11-19T05:26:43;3.88;;;2.60;;
77158;SDS011;66129;45.890;13.714;2023-11-19T05:29:08;5.40;;;3.60;;
77158;SDS011;66129;45.890;13.714;2023-11-19T05:31:34;5.78;;;3.63;;
77158;SDS011;66129;45.890;13.714;2023-11-19T05:33:59;6.18;;;3.38;;
77158;SDS011;66129;45.890;13.714;2023-11-19T05:36:25;8.45;;;2.70;;
77158;SDS011;66129;45.890;13.714;2023-11-19T05:38:50;5.72;;;3.00;;
77158;SDS011;66129;45.890;13.714;2023-11-19T05:41:15;4.50;;;3.22;;
77158;SDS011;66129;45.890;13.714;2023-11-19T05:43:41;4.78;;;3.00;;
77158;SDS011;66129;45.890;13.714;2023-11-19T05:46:07;6.43;;;3.30;;
77158;SDS011;66129;45.890;13.714;2023-11-19T05:48:32;12.13;;;3.03;;
77158;SDS011;66129;45.890;13.714;2023-11-19T05:50:58;4.28;;;3.15;;
77158;SDS011;66129;45.890;13.714;2023-11-19T05:53:23;5.20;;;3.05;;
77158;SDS011;66129;45.890;13.714;2023-11-19T05:55:49;3.90;;;2.65;;
77158;SDS011;66129;45.890;13.714;2023-11-19T05:58:24;6.13;;;3.13;;
77158;SDS011;66129;45.890;13.714;2023-11-19T06:00:51;5.03;;;2.88;;
77158;SDS011;66129;45.890;13.714;2023-11-19T06:03:17;4.55;;;2.60;;
77158;SDS011;66129;45.890;13.714;2023-11-19T06:05:46;5.28;;;2.72;;
77158;SDS011;66129;45.890;13.714;2023-11-19T06:08:12;4.65;;;2.63;;
77158;SDS011;66129;45.890;13.714;2023-11-19T06:10:41;4.50;;;2.97;;
77158;SDS011;66129;45.890;13.714;2023-11-19T06:13:07;5.20;;;2.75;;
77158;SDS011;66129;45.890;13.714;2023-11-19T06:15:35;3.17;;;2.28;;
77158;SDS011;66129;45.890;13.714;2023-11-19T06:18:01;4.50;;;2.28;;
77158;SDS011;66129;45.890;13.714;2023-11-19T06:20:28;3.58;;;2.30;;
77158;SDS011;66129;45.890;13.714;2023-11-19T06:22:57;4.13;;;2.80;;
77158;SDS011;66129;45.890;13.714;2023-11-19T06:25:23;4.72;;;2.75;;
77158;SDS011;66129;45.890;13.714;2023-11-19T06:27:49;4.32;;;2.72;;
77158;SDS011;66129;45.890;13.714;2023-11-19T06:30:15;6.93;;;4.20;;
77158;SDS011;66129;45.890;13.714;2023-11-19T06:32:41;7.45;;;4.20;;
77158;SDS011;66129;45.890;13.714;2023-11-19T06:35:07;7.95;;;4.53;;
77158;SDS011;66129;45.890;13.714;2023-11-19T06:37:33;6.68;;;4.38;;
77158;SDS011;66129;45.890;13.714;2023-11-19T06:39:58;6.28;;;3.47;;
77158;SDS011;66129;45.890;13.714;2023-11-19T06:42:24;5.00;;;3.47;;
77158;SDS011;66129;45.890;13.714;2023-11-19T06:44:49;5.50;;;3.60;;
77158;SDS011;66129;45.890;13.714;2023-11-19T06:47:16;7.13;;;3.67;;
77158;SDS011;66129;45.890;13.714;2023-11-19T06:49:43;6.05;;;3.45;;
77158;SDS011;66129;45.890;13.714;2023-11-19T06:52:09;4.85;;;3.13;;
77158;SDS011;66129;45.890;13.714;2023-11-19T06:54:35;4.93;;;3.00;;
77158;SDS011;66129;45.890;13.714;2023-11-19T06:57:00;6.35;;;3.08;;
77158;SDS011;66129;45.890;13.714;2023-11-19T06:59:26;7.10;;;3.40;;
77158;SDS011;66129;45.890;13.714;2023-11-19T07:01:51;6.60;;;3.13;;
77158;SDS011;66129;45.890;13.714;2023-11-19T07:04:17;4.70;;;3.25;;
77158;SDS011;66129;45.890;13.714;2023-11-19T07:06:42;6.93;;;5.07;;
77158;SDS011;66129;45.890;13.714;2023-11-19T07:09:08;10.13;;;4.80;;
77158;SDS011;66129;45.890;13.714;2023-11-19T07:11:40;5.65;;;3.42;;
77158;SDS011;66129;45.890;13.714;2023-11-19T07:14:06;7.47;;;4.63;;
77158;SDS011;66129;45.890;13.714;2023-11-19T07:16:33;7.13;;;4.40;;
77158;SDS011;66129;45.890;13.714;2023-11-19T07:19:00;8.00;;;4.10;;
77158;SDS011;66129;45.890;13.714;2023-11-19T07:21:28;9.85;;;4.97;;
77158;SDS011;66129;45.890;13.714;2023-11-19T07:23:54;19.48;;;7.20;;
77158;SDS011;66129;45.890;13.714;2023-11-19T07:26:20;13.20;;;5.68;;
77158;SDS011;66129;45.890;13.714;2023-11-19T07:28:47;9.57;;;5.10;;
77158;SDS011;66129;45.890;13.714;2023-11-19T07:31:12;10.65;;;5.90;;
77158;SDS011;66129;45.890;13.714;2023-11-19T07:36:30;21.65;;;11.60;;
77158;SDS011;66129;45.890;13.714;2023-11-19T07:38:56;22.85;;;10.60;;
77158;SDS011;66129;45.890;13.714;2023-11-19T07:41:22;11.30;;;6.50;;
77158;SDS011;66129;45.890;13.714;2023-11-19T07:43:50;8.25;;;4.72;;
77158;SDS011;66129;45.890;13.714;2023-11-19T07:46:17;16.65;;;7.13;;
77158;SDS011;66129;45.890;13.714;2023-11-19T07:48:51;7.63;;;3.35;;
77158;SDS011;66129;45.890;13.714;2023-11-19T07:51:17;11.45;;;5.22;;
77158;SDS011;66129;45.890;13.714;2023-11-19T07:53:43;11.63;;;5.80;;
77158;SDS011;66129;45.890;13.714;2023-11-19T07:56:08;12.15;;;5.15;;
77158;SDS011;66129;45.890;13.714;2023-11-19T07:58:34;9.95;;;4.88;;
77158;SDS011;66129;45.890;13.714;2023-11-19T08:01:00;8.27;;;4.38;;
77158;SDS011;66129;45.890;13.714;2023-11-19T08:03:27;9.10;;;4.88;;
77158;SDS011;66129;45.890;13.714;2023-11-19T08:05:54;7.90;;;4.82;;
77158;SDS011;66129;45.890;13.714;2023-11-19T08:08:21;7.43;;;4.30;;
77158;SDS011;66129;45.890;13.714;2023-11-19T08:10:56;7.45;;;4.55;;
77158;SDS011;66129;45.890;13.714;2023-11-19T08:13:36;7.57;;;2.90;;
77158;SDS011;66129;45.890;13.714;2023-11-19T08:16:01;4.20;;;3.22;;
77158;SDS011;66129;45.890;13.714;2023-11-19T08:18:27;8.88;;;4.60;;
77158;SDS011;66129;45.890;13.714;2023-11-19T08:20:56;5.70;;;3.78;;
77158;SDS011;66129;45.890;13.714;2023-11-19T08:23:23;6.88;;;3.97;;
77158;SDS011;66129;45.890;13.714;2023-11-19T08:25:50;6.88;;;3.58;;
77158;SDS011;66129;45.890;13.714;2023-11-19T08:28:16;5.80;;;3.40;;
77158;SDS011;66129;45.890;13.714;2023-11-19T08:30:42;7.30;;;3.72;;
77158;SDS011;66129;45.890;13.714;2023-11-19T08:33:09;7.90;;;4.80;;
77158;SDS011;66129;45.890;13.714;2023-11-19T08:35:34;7.68;;;4.65;;
77158;SDS011;66129;45.890;13.714;2023-11-19T08:38:00;5.18;;;3.17;;
77158;SDS011;66129;45.890;13.714;2023-11-19T08:40:26;6.45;;;3.72;;
77158;SDS011;66129;45.890;13.714;2023-11-19T08:42:53;7.82;;;4.40;;
77158;SDS011;66129;45.890;13.714;2023-11-19T08:45:18;6.30;;;4.15;;
77158;SDS011;66129;45.890;13.714;2023-11-19T08:47:44;10.25;;;4.88;;
77158;SDS011;66129;45.890;13.714;2023-11-19T08:50:10;6.15;;;4.07;;
77158;SDS011;66129;45.890;13.714;2023-11-19T08:52:36;6.95;;;4.35;;
77158;SDS011;66129;45.890;13.714;2023-11-19T08:55:02;6.65;;;4.05;;
77158;SDS011;66129;45.890;13.714;2023-11-19T08:57:30;13.70;;;7.45;;
77158;SDS011;66129;45.890;13.714;2023-11-19T08:59:55;19.80;;;9.23;;
77158;SDS011;66129;45.890;13.714;2023-11-19T09:02:21;18.67;;;7.57;;
77158;SDS011;66129;45.890;13.714;2023-11-19T09:04:46;12.18;;;6.25;;
77158;SDS011;66129;45.890;13.714;2023-11-19T09:07:12;7.35;;;5.10;;
77158;SDS011;66129;45.890;13.714;2023-11-19T09:09:37;10.38;;;6.28;;
77158;SDS011;66129;45.890;13.714;2023-11-19T09:12:03;11.23;;;6.22;;
77158;SDS011;66129;45.890;13.714;2023-11-19T09:14:29;10.15;;;5.85;;
77158;SDS011;66129;45.890;13.714;2023-11-19T09:16:55;9.60;;;4.43;;
77158;SDS011;66129;45.890;13.714;2023-11-19T09:19:21;8.15;;;4.47;;
77158;SDS011;66129;45.890;13.714;2023-11-19T09:21:47;6.88;;;4.22;;
77158;SDS011;66129;45.890;13.714;2023-11-19T09:24:13;9.55;;;5.03;;
77158;SDS011;66129;45.890;13.714;2023-11-19T09:26:38;12.40;;;6.70;;
77158;SDS011;66129;45.890;13.714;2023-11-19T09:29:06;8.70;;;4.68;;
77158;SDS011;66129;45.890;13.714;2023-11-19T09:31:34;8.02;;;5.22;;
77158;SDS011;66129;45.890;13.714;2023-11-19T09:34:03;7.72;;;4.40;;
77158;SDS011;66129;45.890;13.714;2023-11-19T09:36:28;9.80;;;4.85;;
77158;SDS011;66129;45.890;13.714;2023-11-19T09:38:54;7.20;;;4.43;;
77158;SDS011;66129;45.890;13.714;2023-11-19T09:41:20;6.63;;;4.57;;
77158;SDS011;66129;45.890;13.714;2023-11-19T09:43:46;8.23;;;4.93;;
77158;SDS011;66129;45.890;13.714;2023-11-19T09:46:13;18.02;;;8.43;;
77158;SDS011;66129;45.890;13.714;2023-11-19T09:48:40;11.27;;;6.63;;
77158;SDS011;66129;45.890;13.714;2023-11-19T09:51:09;10.98;;;5.95;;
77158;SDS011;66129;45.890;13.714;2023-11-19T09:53:36;11.57;;;6.15;;
77158;SDS011;66129;45.890;13.714;2023-11-19T09:56:08;11.98;;;6.43;;
77158;SDS011;66129;45.890;13.714;2023-11-19T09:58:34;5.90;;;3.88;;
77158;SDS011;66129;45.890;13.714;2023-11-19T10:01:00;8.13;;;4.45;;
77158;SDS011;66129;45.890;13.714;2023-11-19T10:03:43;6.97;;;3.88;;
77158;SDS011;66129;45.890;13.714;2023-11-19T10:06:12;5.93;;;3.40;;
77158;SDS011;66129;45.890;13.714;2023-11-19T10:08:39;8.32;;;3.97;;
77158;SDS011;66129;45.890;13.714;2023-11-19T10:11:06;7.95;;;3.42;;
77158;SDS011;66129;45.890;13.714;2023-11-19T10:13:33;7.25;;;3.83;;
77158;SDS011;66129;45.890;13.714;2023-11-19T10:16:04;6.35;;;3.47;;
77158;SDS011;66129;45.890;13.714;2023-11-19T10:18:33;5.97;;;3.53;;
77158;SDS011;66129;45.890;13.714;2023-11-19T10:21:03;6.00;;;3.08;;
77158;SDS011;66129;45.890;13.714;2023-11-19T10:23:29;8.80;;;4.40;;
77158;SDS011;66129;45.890;13.714;2023-11-19T10:25:58;8.23;;;4.25;;
77158;SDS011;66129;45.890;13.714;2023-11-19T10:28:37;22.65;;;10.57;;
77158;SDS011;66129;45.890;13.714;2023-11-19T10:31:04;19.98;;;9.57;;
77158;SDS011;66129;45.890;13.714;2023-11-19T10:33:30;7.82;;;4.18;;
77158;SDS011;66129;45.890;13.714;2023-11-19T10:35:57;7.60;;;4.85;;
77158;SDS011;66129;45.890;13.714;2023-11-19T10:38:23;7.50;;;4.70;;
77158;SDS011;66129;45.890;13.714;2023-11-19T10:40:52;18.80;;;11.45;;
77158;SDS011;66129;45.890;13.714;2023-11-19T10:43:19;10.13;;;5.65;;
77158;SDS011;66129;45.890;13.714;2023-11-19T10:45:47;10.43;;;5.60;;
77158;SDS011;66129;45.890;13.714;2023-11-19T10:48:13;11.48;;;5.72;;
77158;SDS011;66129;45.890;13.714;2023-11-19T10:50:39;9.88;;;4.63;;
77158;SDS011;66129;45.890;13.714;2023-11-19T10:53:06;7.65;;;5.03;;
77158;SDS011;66129;45.890;13.714;2023-11-19T10:55:34;7.80;;;4.97;;
77158;SDS011;66129;45.890;13.714;2023-11-19T10:58:01;8.30;;;4.38;;
77158;SDS011;66129;45.890;13.714;2023-11-19T11:03:16;11.93;;;5.78;;
77158;SDS011;66129;45.890;13.714;2023-11-19T11:05:43;11.43;;;6.50;;
77158;SDS011;66129;45.890;13.714;2023-11-19T11:08:12;11.98;;;6.93;;
77158;SDS011;66129;45.890;13.714;2023-11-19T11:10:45;9.35;;;5.43;;
77158;SDS011;66129;45.890;13.714;2023-11-19T11:13:18;9.05;;;5.22;;
77158;SDS011;66129;45.890;13.714;2023-11-19T11:15:45;11.77;;;5.25;;
77158;SDS011;66129;45.890;13.714;2023-11-19T11:18:17;8.80;;;5.45;;
77158;SDS011;66129;45.890;13.714;2023-11-19T11:20:45;9.77;;;5.38;;
77158;SDS011;66129;45.890;13.714;2023-11-19T11:28:26;10.38;;;5.45;;
77158;SDS011;66129;45.890;13.714;2023-11-19T11:36:56;12.52;;;4.57;;
77158;SDS011;66129;45.890;13.714;2023-11-19T11:53:43;6.63;;;4.20;;
77158;SDS011;66129;45.890;13.714;2023-11-19T11:56:23;5.65;;;3.53;;
77158;SDS011;66129;45.890;13.714;2023-11-19T11:59:03;10.40;;;5.13;;
77158;SDS011;66129;45.890;13.714;2023-11-19T12:05:21;5.35;;;3.42;;
77158;SDS011;66129;45.890;13.714;2023-11-19T12:10:47;5.97;;;3.53;;
77158;SDS011;66129;45.890;13.714;2023-11-19T12:13:19;5.68;;;3.83;;
77158;SDS011;66129;45.890;13.714;2023-11-19T12:21:53;5.30;;;2.88;;
77158;SDS011;66129;45.890;13.714;2023-11-19T12:24:19;4.22;;;2.53;;
77158;SDS011;66129;45.890;13.714;2023-11-19T12:26:46;4.30;;;2.70;;
77158;SDS011;66129;45.890;13.714;2023-11-19T12:31:53;5.07;;;2.30;;
77158;SDS011;66129;45.890;13.714;2023-11-19T12:34:22;5.30;;;2.72;;
77158;SDS011;66129;45.890;13.714;2023-11-19T12:36:48;8.55;;;3.38;;
77158;SDS011;66129;45.890;13.714;2023-11-19T12:39:14;4.78;;;2.35;;
77158;SDS011;66129;45.890;13.714;2023-11-19T12:41:51;7.28;;;2.58;;
77158;SDS011;66129;45.890;13.714;2023-11-19T12:47:41;4.50;;;2.78;;
77158;SDS011;66129;45.890;13.714;2023-11-19T12:50:26;7.13;;;1.98;;
77158;SDS011;66129;45.890;13.714;2023-11-19T12:53:22;3.42;;;2.33;;
77158;SDS011;66129;45.890;13.714;2023-11-19T12:55:52;2.53;;;1.65;;
77158;SDS011;66129;45.890;13.714;2023-11-19T12:59:19;5.80;;;3.03;;
77158;SDS011;66129;45.890;13.714;2023-11-19T13:01:22;4.10;;;3.08;;
77158;SDS011;66129;45.890;13.714;2023-11-19T13:03:48;5.55;;;2.95;;
77158;SDS011;66129;45.890;13.714;2023-11-19T13:06:14;5.75;;;3.53;;
77158;SDS011;66129;45.890;13.714;2023-11-19T13:08:46;5.72;;;3.30;;
77158;SDS011;66129;45.890;13.714;2023-11-19T13:11:33;5.63;;;3.17;;
77158;SDS011;66129;45.890;13.714;2023-11-19T13:14:06;6.13;;;3.65;;
77158;SDS011;66129;45.890;13.714;2023-11-19T13:16:37;6.63;;;3.85;;
77158;SDS011;66129;45.890;13.714;2023-11-19T13:19:03;7.05;;;3.10;;
77158;SDS011;66129;45.890;13.714;2023-11-19T13:21:30;5.18;;;2.65;;
77158;SDS011;66129;45.890;13.714;2023-11-19T13:23:55;6.85;;;3.45;;
77158;SDS011;66129;45.890;13.714;2023-11-19T13:26:21;5.70;;;3.20;;
77158;SDS011;66129;45.890;13.714;2023-11-19T13:28:47;5.93;;;3.92;;
77158;SDS011;66129;45.890;13.714;2023-11-19T13:31:13;6.57;;;3.83;;
77158;SDS011;66129;45.890;13.714;2023-11-19T13:33:39;5.97;;;3.40;;
77158;SDS011;66129;45.890;13.714;2023-11-19T13:36:05;6.78;;;4.03;;
77158;SDS011;66129;45.890;13.714;2023-11-19T13:38:33;6.05;;;3.30;;
77158;SDS011;66129;45.890;13.714;2023-11-19T13:41:00;7.55;;;3.15;;
77158;SDS011;66129;45.890;13.714;2023-11-19T13:43:46;3.08;;;2.25;;
77158;SDS011;66129;45.890;13.714;2023-11-19T13:46:11;6.85;;;3.10;;
77158;SDS011;66129;45.890;13.714;2023-11-19T13:48:40;6.22;;;4.85;;
77158;SDS011;66129;45.890;13.714;2023-11-19T13:54:27;5.22;;;3.80;;
77158;SDS011;66129;45.890;13.714;2023-11-19T13:57:29;10.63;;;6.35;;
77158;SDS011;66129;45.890;13.714;2023-11-19T14:00:24;10.00;;;4.88;;
77158;SDS011;66129;45.890;13.714;2023-11-19T14:03:18;5.53;;;4.38;;
77158;SDS011;66129;45.890;13.714;2023-11-19T14:09:23;16.83;;;9.38;;
77158;SDS011;66129;45.890;13.714;2023-11-19T14:11:49;11.70;;;6.18;;
77158;SDS011;66129;45.890;13.714;2023-11-19T14:14:16;10.00;;;5.35;;
77158;SDS011;66129;45.890;13.714;2023-11-19T14:16:49;7.88;;;5.72;;
77158;SDS011;66129;45.890;13.714;2023-11-19T14:19:15;8.90;;;5.07;;
77158;SDS011;66129;45.890;13.714;2023-11-19T14:21:40;9.75;;;5.47;;
77158;SDS011;66129;45.890;13.714;2023-11-19T14:24:06;8.65;;;4.55;;
77158;SDS011;66129;45.890;13.714;2023-11-19T14:26:31;4.95;;;3.65;;
77158;SDS011;66129;45.890;13.714;2023-11-19T14:28:57;7.03;;;3.30;;
77158;SDS011;66129;45.890;13.714;2023-11-19T14:31:22;6.55;;;3.63;;
77158;SDS011;66129;45.890;13.714;2023-11-19T14:33:48;5.65;;;3.13;;
77158;SDS011;66129;45.890;13.714;2023-11-19T14:36:14;5.53;;;3.10;;
77158;SDS011;66129;45.890;13.714;2023-11-19T14:38:40;6.30;;;3.90;;
77158;SDS011;66129;45.890;13.714;2023-11-19T14:41:06;6.95;;;4.57;;
77158;SDS011;66129;45.890;13.714;2023-11-19T14:43:32;8.32;;;5.43;;
77158;SDS011;66129;45.890;13.714;2023-11-19T14:46:01;9.18;;;4.72;;
77158;SDS011;66129;45.890;13.714;2023-11-19T14:48:28;7.70;;;4.63;;
77158;SDS011;66129;45.890;13.714;2023-11-19T14:50:54;7.35;;;4.80;;
77158;SDS011;66129;45.890;13.714;2023-11-19T14:53:19;6.80;;;4.28;;
77158;SDS011;66129;45.890;13.714;2023-11-19T14:55:45;6.60;;;4.32;;
77158;SDS011;66129;45.890;13.714;2023-11-19T14:58:10;9.30;;;5.72;;
77158;SDS011;66129;45.890;13.714;2023-11-19T15:00:36;10.40;;;5.70;;
77158;SDS011;66129;45.890;13.714;2023-11-19T15:03:01;10.73;;;6.57;;
77158;SDS011;66129;45.890;13.714;2023-11-19T15:05:27;10.70;;;6.40;;
77158;SDS011;66129;45.890;13.714;2023-11-19T15:07:54;9.60;;;5.63;;
77158;SDS011;66129;45.890;13.714;2023-11-19T15:10:20;10.18;;;6.00;;
77158;SDS011;66129;45.890;13.714;2023-11-19T15:12:46;14.68;;;6.70;;
77158;SDS011;66129;45.890;13.714;2023-11-19T15:15:14;19.85;;;9.57;;
77158;SDS011;66129;45.890;13.714;2023-11-19T15:17:40;15.38;;;7.97;;
77158;SDS011;66129;45.890;13.714;2023-11-19T15:20:06;18.92;;;7.97;;
77158;SDS011;66129;45.890;13.714;2023-11-19T15:22:34;11.43;;;6.32;;
77158;SDS011;66129;45.890;13.714;2023-11-19T15:25:07;9.20;;;5.03;;
77158;SDS011;66129;45.890;13.714;2023-11-19T15:27:35;8.50;;;4.32;;
77158;SDS011;66129;45.890;13.714;2023-11-19T15:30:01;8.15;;;5.22;;
77158;SDS011;66129;45.890;13.714;2023-11-19T15:32:28;9.30;;;5.88;;
77158;SDS011;66129;45.890;13.714;2023-11-19T15:34:56;13.05;;;4.85;;